createdAt,value
2023-01-29T00:00:10.195Z,8.00
2023-01-29T00:03:01.041Z,8.50
2023-01-29T00:05:29.181Z,9.50
2023-01-29T00:07:57.626Z,8.80
2023-01-29T00:10:26.560Z,8.20
2023-01-29T00:12:55.327Z,9.20
2023-01-29T00:15:23.516Z,9.10
2023-01-29T00:17:51.545Z,8.10
2023-01-29T00:20:19.791Z,8.30
2023-01-29T00:22:48.058Z,7.70
2023-01-29T00:25:16.110Z,8.80
2023-01-29T00:27:44.954Z,8.60
2023-01-29T00:30:14.094Z,8.70
2023-01-29T00:32:42.380Z,8.80
2023-01-29T00:35:10.798Z,8.50
2023-01-29T00:37:38.928Z,8.50
2023-01-29T00:40:07.441Z,7.80
2023-01-29T00:42:54.121Z,8.70
2023-01-29T00:45:22.395Z,8.20
2023-01-29T00:47:50.660Z,8.10
2023-01-29T00:50:18.980Z,7.70
2023-01-29T00:52:48.761Z,9.40
2023-01-29T00:55:17.346Z,9.80
2023-01-29T00:57:45.322Z,8.90
2023-01-29T01:00:16.550Z,9.90
2023-01-29T01:03:03.887Z,9.30
2023-01-29T01:05:32.185Z,8.60
2023-01-29T01:08:00.189Z,8.80
2023-01-29T01:10:32.137Z,9.40
2023-01-29T01:13:06.014Z,8.60
2023-01-29T01:15:36.649Z,9.60
2023-01-29T01:18:05.435Z,9.70
2023-01-29T01:20:35.859Z,8.90
2023-01-29T01:23:04.243Z,8.30
2023-01-29T01:25:32.715Z,8.10
2023-01-29T01:28:03.457Z,8.40
2023-01-29T01:30:33.138Z,9.30
2023-01-29T01:33:02.348Z,9.50
2023-01-29T01:35:30.338Z,8.90
2023-01-29T01:37:58.303Z,9.40
2023-01-29T01:40:26.777Z,8.90
2023-01-29T01:42:58.032Z,10.10
2023-01-29T01:45:30.431Z,8.70
2023-01-29T01:48:04.427Z,8.90
2023-01-29T01:50:42.733Z,10.30
2023-01-29T01:53:18.988Z,9.80
2023-01-29T01:55:55.048Z,9.30
2023-01-29T01:58:31.934Z,9.70
2023-01-29T02:01:00.431Z,9.50
2023-01-29T02:03:49.899Z,9.70
2023-01-29T02:06:36.892Z,10.00
2023-01-29T02:09:35.720Z,9.40
2023-01-29T02:12:08.890Z,9.90
2023-01-29T02:14:39.595Z,8.60
2023-01-29T02:17:11.174Z,10.00
2023-01-29T02:20:13.239Z,10.40
2023-01-29T02:23:15.152Z,10.10
2023-01-29T02:26:05.497Z,9.70
2023-01-29T02:28:45.367Z,9.70
2023-01-29T02:31:46.004Z,11.20
2023-01-29T02:34:21.963Z,10.90
2023-01-29T02:36:58.552Z,12.60
2023-01-29T02:39:36.608Z,11.50
2023-01-29T02:42:22.298Z,10.80
2023-01-29T02:44:55.901Z,11.60
2023-01-29T02:47:45.374Z,11.20
2023-01-29T02:50:21.331Z,13.00
2023-01-29T02:53:09.191Z,12.80
2023-01-29T02:56:03.048Z,12.70
2023-01-29T02:58:45.763Z,12.70
2023-01-29T03:01:39.950Z,12.20
2023-01-29T03:04:14.976Z,11.20
2023-01-29T03:06:49.371Z,12.90
2023-01-29T03:09:25.575Z,10.10
2023-01-29T03:11:59.870Z,10.70
2023-01-29T03:14:56.039Z,10.40
2023-01-29T03:17:28.723Z,10.10
2023-01-29T03:19:56.904Z,10.60
2023-01-29T03:22:27.890Z,10.50
2023-01-29T03:25:16.980Z,10.70
2023-01-29T03:28:12.476Z,9.30
2023-01-29T03:31:08.853Z,10.00
2023-01-29T03:33:54.916Z,10.10
2023-01-29T03:36:39.692Z,8.40
2023-01-29T03:39:11.471Z,10.10
2023-01-29T03:41:55.788Z,12.00
2023-01-29T03:44:49.465Z,9.90
2023-01-29T03:47:40.542Z,11.70
2023-01-29T03:50:59.742Z,10.70
2023-01-29T03:53:37.441Z,12.10
2023-01-29T03:56:20.977Z,12.50
2023-01-29T03:59:12.054Z,11.30
2023-01-29T04:02:09.120Z,10.40
2023-01-29T04:04:39.215Z,12.20
2023-01-29T04:07:12.555Z,11.10
2023-01-29T04:10:06.430Z,9.40
2023-01-29T04:12:47.297Z,12.50
2023-01-29T04:15:17.691Z,12.90
2023-01-29T04:17:51.201Z,13.40
2023-01-29T04:20:25.109Z,12.20
2023-01-29T04:22:53.622Z,12.60
2023-01-29T04:25:29.481Z,13.30
2023-01-29T04:28:09.746Z,12.60
2023-01-29T04:30:55.302Z,12.10
2023-01-29T04:33:51.246Z,12.20
2023-01-29T04:36:35.393Z,13.10
2023-01-29T04:39:34.163Z,12.60
2023-01-29T04:42:20.483Z,11.60
2023-01-29T04:45:01.848Z,12.00
2023-01-29T04:47:36.996Z,12.30
2023-01-29T04:50:39.568Z,11.90
2023-01-29T04:53:10.729Z,12.80
2023-01-29T04:55:49.868Z,13.10
2023-01-29T04:58:37.795Z,10.30
2023-01-29T05:01:09.245Z,10.90
2023-01-29T05:03:40.581Z,10.00
2023-01-29T05:06:11.046Z,11.90
2023-01-29T05:08:41.165Z,12.30
2023-01-29T05:11:10.245Z,11.70
2023-01-29T05:13:42.153Z,11.50
2023-01-29T05:16:20.846Z,11.70
2023-01-29T05:18:48.932Z,12.50
2023-01-29T05:21:16.932Z,12.10
2023-01-29T05:23:53.364Z,11.20
2023-01-29T05:26:40.449Z,9.40
2023-01-29T05:29:08.726Z,9.40
2023-01-29T05:31:36.743Z,9.90
2023-01-29T05:34:04.958Z,9.80
2023-01-29T05:36:33.065Z,11.60
2023-01-29T05:39:00.948Z,11.50
2023-01-29T05:41:28.971Z,10.30
2023-01-29T05:43:56.953Z,10.30
2023-01-29T05:46:25.386Z,9.90
2023-01-29T05:48:53.621Z,9.70
2023-01-29T05:51:21.578Z,11.80
2023-01-29T05:53:49.556Z,11.00
2023-01-29T05:56:17.518Z,9.00
2023-01-29T05:58:45.692Z,9.70
2023-01-29T06:01:21.159Z,10.20
2023-01-29T06:03:49.183Z,10.50
2023-01-29T06:06:17.582Z,11.60
2023-01-29T06:08:45.455Z,11.20
2023-01-29T06:11:18.470Z,11.50
2023-01-29T06:13:46.620Z,11.70
2023-01-29T06:16:16.517Z,10.60
2023-01-29T06:18:44.712Z,10.80
2023-01-29T06:21:13.976Z,10.50
2023-01-29T06:23:42.182Z,9.80
2023-01-29T06:26:15.200Z,9.60
2023-01-29T06:28:45.192Z,10.40
2023-01-29T06:31:35.285Z,9.20
2023-01-29T06:34:01.099Z,8.70
2023-01-29T06:36:29.145Z,9.60
2023-01-29T06:38:57.116Z,8.50
2023-01-29T06:41:25.756Z,7.70
2023-01-29T06:43:54.004Z,9.50
2023-01-29T06:46:22.038Z,9.50
2023-01-29T06:48:50.049Z,8.70
2023-01-29T06:51:18.424Z,8.40
2023-01-29T06:53:46.934Z,7.90
2023-01-29T06:56:15.259Z,7.40
2023-01-29T06:58:43.674Z,7.60
2023-01-29T07:01:25.527Z,9.00
2023-01-29T07:04:01.110Z,7.60
2023-01-29T07:06:30.106Z,8.20
2023-01-29T07:08:58.226Z,8.20
2023-01-29T07:11:26.499Z,8.00
2023-01-29T07:13:54.515Z,8.00
2023-01-29T07:16:23.684Z,8.50
2023-01-29T07:18:51.888Z,8.20
2023-01-29T07:21:19.969Z,7.70
2023-01-29T07:23:48.036Z,8.30
2023-01-29T07:26:16.600Z,7.90
2023-01-29T07:28:44.597Z,8.10
2023-01-29T07:31:14.661Z,8.20
2023-01-29T07:33:46.119Z,8.30
2023-01-29T07:36:15.471Z,9.50
2023-01-29T07:38:43.650Z,7.00
2023-01-29T07:41:12.542Z,7.70
2023-01-29T07:43:40.887Z,7.80
2023-01-29T07:46:09.338Z,8.50
2023-01-29T07:48:37.968Z,7.90
2023-01-29T07:51:06.554Z,7.10
2023-01-29T07:53:34.590Z,7.40
2023-01-29T07:56:03.520Z,7.50
2023-01-29T07:58:31.429Z,8.70
2023-01-29T08:00:59.727Z,8.70
2023-01-29T08:03:27.706Z,8.20
2023-01-29T08:05:58.150Z,8.80
2023-01-29T08:08:26.345Z,8.30
2023-01-29T08:10:54.228Z,8.30
2023-01-29T08:13:22.215Z,8.20
2023-01-29T08:15:50.137Z,8.10
2023-01-29T08:18:18.015Z,8.40
2023-01-29T08:20:46.130Z,7.40
2023-01-29T08:23:16.433Z,8.00
2023-01-29T08:25:44.421Z,7.30
2023-01-29T08:28:12.620Z,7.90
2023-01-29T08:30:41.266Z,8.10
2023-01-29T08:33:09.695Z,8.10
2023-01-29T08:35:37.872Z,8.60
2023-01-29T08:38:06.034Z,8.60
2023-01-29T08:40:35.085Z,7.20
2023-01-29T08:43:07.834Z,8.30
2023-01-29T08:45:40.066Z,7.90
2023-01-29T08:48:09.209Z,7.20
2023-01-29T08:50:38.319Z,8.60
2023-01-29T08:53:08.282Z,8.30
2023-01-29T08:55:38.643Z,7.60
2023-01-29T08:58:08.878Z,8.10
2023-01-29T09:00:37.321Z,8.30
2023-01-29T09:03:07.909Z,7.80
2023-01-29T09:05:38.024Z,7.80
2023-01-29T09:08:07.606Z,7.20
2023-01-29T09:10:36.088Z,7.70
2023-01-29T09:13:04.357Z,7.70
2023-01-29T09:15:32.441Z,9.10
2023-01-29T09:18:04.313Z,8.50
2023-01-29T09:20:32.578Z,8.60
2023-01-29T09:23:04.978Z,8.00
2023-01-29T09:25:33.018Z,7.50
2023-01-29T09:28:01.003Z,7.50
2023-01-29T09:30:29.240Z,8.90
2023-01-29T09:32:57.131Z,8.80
2023-01-29T09:35:25.107Z,7.70
2023-01-29T09:37:53.209Z,8.20
2023-01-29T09:40:26.931Z,7.20
2023-01-29T09:42:59.591Z,8.70
2023-01-29T09:45:29.805Z,8.00
2023-01-29T09:48:02.562Z,8.10
2023-01-29T09:50:40.273Z,8.20
2023-01-29T09:53:43.488Z,7.20
2023-01-29T09:56:17.568Z,6.80
2023-01-29T09:58:45.758Z,7.00
2023-01-29T10:01:36.060Z,6.70
2023-01-29T10:04:28.541Z,8.30
2023-01-29T10:07:33.934Z,8.20
2023-01-29T10:10:01.831Z,7.40
2023-01-29T10:12:39.353Z,7.70
2023-01-29T10:15:41.335Z,7.60
2023-01-29T10:18:27.759Z,7.50
2023-01-29T10:21:34.270Z,7.90
2023-01-29T10:24:29.954Z,8.20
2023-01-29T10:26:59.783Z,7.90
2023-01-29T10:29:29.933Z,8.10
2023-01-29T10:32:05.164Z,8.80
2023-01-29T10:34:56.036Z,8.20
2023-01-29T10:37:32.807Z,8.30
2023-01-29T10:40:01.084Z,8.60
2023-01-29T10:42:42.891Z,8.90
2023-01-29T10:45:31.853Z,7.60
2023-01-29T10:50:46.390Z,8.00
2023-01-29T10:53:24.728Z,7.90
2023-01-29T10:56:23.052Z,8.20
2023-01-29T10:59:24.369Z,8.10
2023-01-29T11:01:57.197Z,8.60
2023-01-29T11:04:26.937Z,7.70
2023-01-29T11:06:54.924Z,8.10
2023-01-29T11:09:36.010Z,8.00
2023-01-29T11:12:17.874Z,8.10
2023-01-29T11:14:54.550Z,7.70
2023-01-29T11:17:24.391Z,8.00
2023-01-29T11:19:55.739Z,7.10
2023-01-29T11:22:26.469Z,7.70
2023-01-29T11:25:17.307Z,8.00
2023-01-29T11:27:52.858Z,6.00
2023-01-29T11:30:23.742Z,5.90
2023-01-29T11:33:08.281Z,6.10
2023-01-29T11:35:36.914Z,7.50
2023-01-29T11:38:16.726Z,6.60
2023-01-29T11:40:45.140Z,5.00
2023-01-29T11:43:18.126Z,8.10
2023-01-29T11:45:47.163Z,7.30
2023-01-29T11:50:52.653Z,7.60
2023-01-29T11:53:32.834Z,7.80
2023-01-29T11:56:03.975Z,7.20
2023-01-29T11:58:34.901Z,8.70
2023-01-29T12:01:03.944Z,7.20
2023-01-29T12:03:40.428Z,7.40
2023-01-29T12:06:18.687Z,7.80
2023-01-29T12:08:57.590Z,8.50
2023-01-29T12:11:32.739Z,7.40
2023-01-29T12:14:06.464Z,8.40
2023-01-29T12:17:03.834Z,7.50
2023-01-29T12:19:38.065Z,7.00
2023-01-29T12:22:09.177Z,7.70
2023-01-29T12:25:20.564Z,6.50
2023-01-29T12:27:57.755Z,6.70
2023-01-29T12:30:35.215Z,7.60
2023-01-29T12:33:29.316Z,7.90
2023-01-29T12:36:10.891Z,7.20
2023-01-29T12:38:41.148Z,6.90
2023-01-29T12:41:27.230Z,7.40
2023-01-29T12:44:01.860Z,8.10
2023-01-29T12:46:37.428Z,8.50
2023-01-29T12:49:13.296Z,7.70
2023-01-29T12:51:54.544Z,8.00
2023-01-29T12:54:33.442Z,7.70
2023-01-29T12:57:07.775Z,6.70
2023-01-29T12:59:43.455Z,6.60
2023-01-29T13:02:30.346Z,10.00
2023-01-29T13:05:18.827Z,27.60
2023-01-29T13:07:58.371Z,12.90
2023-01-29T13:10:31.103Z,11.90
2023-01-29T13:13:05.503Z,8.60
2023-01-29T13:15:43.964Z,8.70
2023-01-29T13:18:18.074Z,9.50
2023-01-29T13:20:48.766Z,8.30
2023-01-29T13:23:34.186Z,8.00
2023-01-29T13:26:02.874Z,20.50
2023-01-29T13:28:31.658Z,8.70
2023-01-29T13:31:18.671Z,9.30
2023-01-29T13:33:58.728Z,8.30
2023-01-29T13:36:30.384Z,32.60
2023-01-29T13:39:07.680Z,17.70
2023-01-29T13:41:42.837Z,18.70
2023-01-29T13:44:50.717Z,10.60
2023-01-29T13:47:39.627Z,15.90
2023-01-29T13:50:36.333Z,17.20
2023-01-29T13:53:08.401Z,14.10
2023-01-29T13:55:39.333Z,8.70
2023-01-29T13:58:29.146Z,13.60
2023-01-29T14:00:58.908Z,14.00
2023-01-29T14:03:26.901Z,13.30
2023-01-29T14:05:56.499Z,7.40
2023-01-29T14:11:15.871Z,14.30
2023-01-29T14:13:46.124Z,8.30
2023-01-29T14:16:14.235Z,11.00
2023-01-29T14:19:02.273Z,9.90
2023-01-29T14:21:33.543Z,8.00
2023-01-29T14:24:22.099Z,8.60
2023-01-29T14:26:55.322Z,7.50
2023-01-29T14:29:34.339Z,7.10
2023-01-29T14:32:06.085Z,7.30
2023-01-29T14:34:41.748Z,8.80
2023-01-29T14:37:20.674Z,7.30
2023-01-29T14:39:50.261Z,8.90
2023-01-29T14:42:24.453Z,7.60
2023-01-29T14:44:55.468Z,7.20
2023-01-29T14:47:32.797Z,8.30
2023-01-29T14:50:20.316Z,5.90
2023-01-29T14:52:53.969Z,6.80
2023-01-29T14:55:38.241Z,6.20
2023-01-29T14:58:13.024Z,6.80
2023-01-29T15:00:44.956Z,7.70
2023-01-29T15:03:19.689Z,11.70
2023-01-29T15:05:49.673Z,9.20
2023-01-29T15:08:30.294Z,8.00
2023-01-29T15:11:21.883Z,9.50
2023-01-29T15:14:51.805Z,7.50
2023-01-29T15:17:33.178Z,7.10
2023-01-29T15:20:01.278Z,6.90
2023-01-29T15:22:32.976Z,7.40
2023-01-29T15:25:29.578Z,7.40
2023-01-29T15:27:58.693Z,7.30
2023-01-29T15:30:33.269Z,16.90
2023-01-29T15:33:03.157Z,20.70
2023-01-29T15:35:37.141Z,8.00
2023-01-29T15:38:17.315Z,9.10
2023-01-29T15:40:59.380Z,9.00
2023-01-29T15:43:29.714Z,7.10
2023-01-29T15:46:01.237Z,6.90
2023-01-29T15:48:40.608Z,6.40
2023-01-29T15:51:13.437Z,8.00
2023-01-29T15:53:44.485Z,7.00
2023-01-29T15:56:15.941Z,8.80
2023-01-29T15:58:48.389Z,6.50
2023-01-29T16:01:16.775Z,5.60
2023-01-29T16:03:46.567Z,8.90
2023-01-29T16:06:15.000Z,6.60
2023-01-29T16:08:48.204Z,6.40
2023-01-29T16:11:18.970Z,8.10
2023-01-29T16:13:50.098Z,8.70
2023-01-29T16:16:24.988Z,6.20
2023-01-29T16:19:00.449Z,6.40
2023-01-29T16:21:29.160Z,8.40
2023-01-29T16:24:03.605Z,6.30
2023-01-29T16:26:35.293Z,6.40
2023-01-29T16:29:09.552Z,6.40
2023-01-29T16:31:39.155Z,5.70
2023-01-29T16:34:14.288Z,6.60
2023-01-29T16:36:47.159Z,9.10
2023-01-29T16:39:24.570Z,7.20
2023-01-29T16:42:12.309Z,6.70
2023-01-29T16:44:45.632Z,6.90
2023-01-29T16:47:24.011Z,7.20
2023-01-29T16:49:55.872Z,7.10
2023-01-29T16:52:32.943Z,6.50
2023-01-29T16:55:11.918Z,7.30
2023-01-29T16:57:41.088Z,7.20
2023-01-29T17:02:46.427Z,6.60
2023-01-29T17:05:23.750Z,7.00
2023-01-29T17:07:52.260Z,6.10
2023-01-29T17:10:21.977Z,6.60
2023-01-29T17:12:58.502Z,5.90
2023-01-29T17:15:29.326Z,5.90
2023-01-29T17:17:57.237Z,6.50
2023-01-29T17:20:26.318Z,6.40
2023-01-29T17:22:55.099Z,6.90
2023-01-29T17:25:23.945Z,5.50
2023-01-29T17:27:52.453Z,6.10
2023-01-29T17:30:24.067Z,6.10
2023-01-29T17:32:51.916Z,6.30
2023-01-29T17:35:21.558Z,6.40
2023-01-29T17:37:49.863Z,5.60
2023-01-29T17:40:25.980Z,6.80
2023-01-29T17:42:54.200Z,7.70
2023-01-29T17:45:22.123Z,9.50
2023-01-29T17:47:50.031Z,6.90
2023-01-29T17:50:30.825Z,5.50
2023-01-29T17:52:58.790Z,6.30
2023-01-29T17:55:26.677Z,6.70
2023-01-29T17:57:54.674Z,15.10
2023-01-29T18:00:24.378Z,16.70
2023-01-29T18:02:52.494Z,7.30
2023-01-29T18:05:20.851Z,7.90
2023-01-29T18:07:51.736Z,7.10
2023-01-29T18:10:21.737Z,6.80
2023-01-29T18:12:49.739Z,6.00
2023-01-29T18:15:17.909Z,6.30
2023-01-29T18:17:46.401Z,6.40
2023-01-29T18:20:23.722Z,6.20
2023-01-29T18:22:52.218Z,5.70
2023-01-29T18:25:20.669Z,6.10
2023-01-29T18:27:49.390Z,5.50
2023-01-29T18:30:17.702Z,5.80
2023-01-29T18:32:47.499Z,6.10
2023-01-29T18:35:16.139Z,5.40
2023-01-29T18:37:44.755Z,5.60
2023-01-29T18:40:13.910Z,5.30
2023-01-29T18:45:11.534Z,5.50
2023-01-29T18:50:08.800Z,5.80
2023-01-29T18:52:36.811Z,4.90
2023-01-29T18:55:05.253Z,5.80
2023-01-29T18:58:29.163Z,6.40
2023-01-29T19:00:22.451Z,5.40
2023-01-29T19:02:50.973Z,5.70
2023-01-29T19:05:22.938Z,5.20
2023-01-29T19:07:52.224Z,5.90
2023-01-29T19:12:48.177Z,5.90
2023-01-29T19:15:20.690Z,6.10
2023-01-29T19:17:52.203Z,5.50
2023-01-29T19:20:20.435Z,6.40
2023-01-29T19:22:48.861Z,6.20
2023-01-29T19:25:17.890Z,5.80
2023-01-29T19:27:46.335Z,5.70
2023-01-29T19:30:14.527Z,5.80
2023-01-29T19:32:42.586Z,5.40
2023-01-29T19:35:10.481Z,4.80
2023-01-29T19:37:38.404Z,5.70
2023-01-29T19:40:08.275Z,4.70
2023-01-29T19:42:37.676Z,4.80
2023-01-29T19:45:06.426Z,5.10
2023-01-29T19:47:42.402Z,5.30
2023-01-29T19:50:11.273Z,4.50
2023-01-29T19:52:50.858Z,6.00
2023-01-29T19:55:21.218Z,5.20
2023-01-29T19:57:52.916Z,6.10
2023-01-29T20:00:21.850Z,5.80
2023-01-29T20:02:50.063Z,5.60
2023-01-29T20:05:18.820Z,5.80
2023-01-29T20:07:47.072Z,4.70
2023-01-29T20:10:17.510Z,4.90
2023-01-29T20:12:46.546Z,5.30
2023-01-29T20:15:15.654Z,5.10
2023-01-29T20:17:45.770Z,4.80
2023-01-29T20:20:13.848Z,5.20
2023-01-29T20:22:42.193Z,5.20
2023-01-29T20:25:13.653Z,5.80
2023-01-29T20:27:42.458Z,4.30
2023-01-29T20:30:11.360Z,5.10
2023-01-29T20:32:39.328Z,4.90
2023-01-29T20:35:08.214Z,5.40
2023-01-29T20:37:36.153Z,5.10
2023-01-29T20:40:04.582Z,5.70
2023-01-29T20:42:32.711Z,6.00
2023-01-29T20:45:00.705Z,4.70
2023-01-29T20:47:29.189Z,5.50
2023-01-29T20:49:57.068Z,5.00
2023-01-29T20:52:25.503Z,5.50
2023-01-29T20:54:53.911Z,5.90
2023-01-29T20:57:22.187Z,5.30
2023-01-29T20:59:50.212Z,5.40
2023-01-29T21:02:18.292Z,6.00
2023-01-29T21:04:46.710Z,6.40
2023-01-29T21:07:14.686Z,6.20
2023-01-29T21:09:43.412Z,5.70
2023-01-29T21:12:11.353Z,6.60
2023-01-29T21:14:39.305Z,5.60
2023-01-29T21:17:07.376Z,5.20
2023-01-29T21:19:35.299Z,6.10
2023-01-29T21:22:03.217Z,5.10
2023-01-29T21:24:31.197Z,5.20
2023-01-29T21:26:59.267Z,4.70
2023-01-29T21:29:27.657Z,4.30
2023-01-29T21:31:55.736Z,5.40
2023-01-29T21:34:24.186Z,5.00
2023-01-29T21:36:52.267Z,5.20
2023-01-29T21:39:21.157Z,4.60
2023-01-29T21:42:09.412Z,5.00
2023-01-29T21:44:38.080Z,5.30
2023-01-29T21:47:12.560Z,5.90
2023-01-29T21:49:44.418Z,4.90
2023-01-29T21:52:13.255Z,5.60
2023-01-29T21:54:41.943Z,5.20
2023-01-29T21:57:14.946Z,5.80
2023-01-29T21:59:43.925Z,5.80
2023-01-29T22:02:20.004Z,5.00
2023-01-29T22:07:16.845Z,5.80
2023-01-29T22:09:44.810Z,6.30
2023-01-29T22:12:13.095Z,6.10
2023-01-29T22:14:42.081Z,6.20
2023-01-29T22:17:10.770Z,5.70
2023-01-29T22:19:38.779Z,5.60
2023-01-29T22:22:07.882Z,5.70
2023-01-29T22:24:35.974Z,5.70
2023-01-29T22:27:03.952Z,5.30
2023-01-29T22:29:31.855Z,6.30
2023-01-29T22:31:59.888Z,5.00
2023-01-29T22:34:27.886Z,5.70
2023-01-29T22:36:56.060Z,6.10
2023-01-29T22:39:24.002Z,5.40
2023-01-29T22:41:52.444Z,4.50
2023-01-29T22:44:20.333Z,5.00
2023-01-29T22:46:48.758Z,4.60
2023-01-29T22:49:17.546Z,4.80
2023-01-29T22:51:45.523Z,5.00
2023-01-29T22:54:15.493Z,5.10
2023-01-29T22:56:43.420Z,4.30
2023-01-29T22:59:11.340Z,5.20
2023-01-29T23:01:39.411Z,5.70
2023-01-29T23:04:07.344Z,5.60
2023-01-29T23:06:35.266Z,5.20
2023-01-29T23:09:03.455Z,5.10
2023-01-29T23:11:31.409Z,6.00
2023-01-29T23:13:59.504Z,5.80
2023-01-29T23:16:28.443Z,5.10
2023-01-29T23:18:57.164Z,5.60
2023-01-29T23:21:26.296Z,5.90
2023-01-29T23:23:58.201Z,5.60
2023-01-29T23:26:44.715Z,5.70
2023-01-29T23:29:13.527Z,6.00
2023-01-29T23:31:41.617Z,6.50
2023-01-29T23:34:09.574Z,5.60
2023-01-29T23:36:37.540Z,5.40
2023-01-29T23:39:06.328Z,5.50
2023-01-29T23:41:34.486Z,4.80
2023-01-29T23:44:02.476Z,5.30
2023-01-29T23:46:31.086Z,4.40
2023-01-29T23:48:59.129Z,5.10
2023-01-29T23:51:27.573Z,4.40
2023-01-29T23:53:55.682Z,5.70
2023-01-29T23:56:23.737Z,5.50
2023-01-29T23:58:56.464Z,5.00
